Time;durP1;ratioP1;P1;durP2;ratioP2;P2;SDS_P1;SDS_P2;PMS_P1;PMS_P2;Temp;Humidity;BMP_temperature;BMP_pressure;BME280_temperature;BME280_humidity;BME280_pressure;Samples;Min_cycle;Max_cycle;Signal;HPM_P1;HPM_P2
2022/10/09 00:00:04;;;;;;;15.58;9.88;;;;;;;12.83;100.00;98646.75;1782377;79;21982;-85
2022/10/09 00:02:32;;;;;;;21.10;10.45;;;;;;;12.85;100.00;98643.75;1724344;82;21028;-87
2022/10/09 00:04:58;;;;;;;14.85;8.18;;;;;;;12.87;100.00;98641.00;1763605;81;20918;-84
2022/10/09 00:07:24;;;;;;;18.37;9.38;;;;;;;12.87;100.00;98646.44;1760690;81;20882;-87
2022/10/09 00:09:49;;;;;;;19.30;9.35;;;;;;;12.88;100.00;98643.98;1732841;82;21526;-86
2022/10/09 00:12:15;;;;;;;20.88;10.20;;;;;;;12.91;100.00;98646.72;1752000;81;21298;-87
2022/10/09 00:14:42;;;;;;;16.93;9.30;;;;;;;12.89;100.00;98645.61;1732708;81;22226;-87
2022/10/09 00:17:08;;;;;;;13.45;8.48;;;;;;;12.89;100.00;98643.44;1752308;81;20961;-85
2022/10/09 00:19:33;;;;;;;15.65;7.35;;;;;;;12.90;100.00;98649.98;1751349;82;20952;-85
2022/10/09 00:21:59;;;;;;;13.00;7.65;;;;;;;12.87;100.00;98660.59;1772013;81;20997;-84
2022/10/09 00:24:25;;;;;;;16.20;9.13;;;;;;;12.85;100.00;98654.63;1751265;81;21322;-85
2022/10/09 00:26:51;;;;;;;14.23;8.35;;;;;;;12.84;100.00;98659.80;1772102;81;21578;-85
2022/10/09 00:29:17;;;;;;;16.70;7.97;;;;;;;12.85;100.00;98653.27;1751206;81;20909;-85
2022/10/09 00:31:43;;;;;;;19.55;9.05;;;;;;;12.83;100.00;98655.45;1771805;81;20912;-87
2022/10/09 00:34:09;;;;;;;14.70;9.48;;;;;;;12.82;100.00;98651.08;1751455;81;20885;-86
2022/10/09 00:36:35;;;;;;;14.78;7.95;;;;;;;12.80;100.00;98655.99;1772098;81;21160;-87
2022/10/09 00:39:01;;;;;;;13.20;8.48;;;;;;;12.81;100.00;98659.79;1750957;81;20882;-85
2022/10/09 00:41:29;;;;;;;14.85;7.90;;;;;;;12.80;100.00;98653.27;1771983;81;20893;-86
2022/10/09 00:43:58;;;;;;;13.78;8.88;;;;;;;12.81;100.00;98658.98;1771738;81;21041;-85
2022/10/09 00:46:44;;;;;;;11.63;7.95;;;;;;;12.80;100.00;98670.95;1771728;81;21004;-85
2022/10/09 00:49:16;;;;;;;17.90;7.72;;;;;;;12.79;100.00;98671.50;1770185;81;21316;-85
2022/10/09 00:51:42;;;;;;;14.63;7.80;;;;;;;12.74;100.00;98660.66;1724445;82;21075;-85
2022/10/09 00:54:11;;;;;;;13.70;7.50;;;;;;;12.74;100.00;98662.56;1771431;81;21035;-85
2022/10/09 00:56:37;;;;;;;11.55;7.33;;;;;;;12.71;100.00;98669.36;1771911;81;21067;-86
2022/10/09 00:59:03;;;;;;;11.80;6.45;;;;;;;12.65;98.76;98667.22;1751115;81;20969;-86
2022/10/09 01:01:29;;;;;;;11.05;6.72;;;;;;;12.66;99.46;98667.48;1771782;81;22021;-85
2022/10/09 01:03:55;;;;;;;16.05;7.47;;;;;;;12.67;99.95;98656.06;1768394;80;21189;-87
2022/10/09 01:06:41;;;;;;;14.68;7.35;;;;;;;12.61;98.55;98665.31;1760594;81;21028;-87
2022/10/09 01:09:14;;;;;;;13.18;7.87;;;;;;;12.59;98.96;98666.95;1744000;81;21037;-86
2022/10/09 01:12:03;;;;;;;12.10;6.55;;;;;;;12.56;98.71;98674.31;1760238;81;20985;-85
2022/10/09 01:14:33;;;;;;;12.47;7.62;;;;;;;12.55;98.87;98660.43;1732476;82;21492;-86
2022/10/09 01:17:10;;;;;;;16.00;6.67;;;;;;;12.54;99.15;98663.43;1723680;81;21041;-87
2022/10/09 01:20:02;;;;;;;13.10;7.05;;;;;;;12.48;99.04;98670.00;1720377;83;21050;-85
2022/10/09 01:23:00;;;;;;;17.37;7.75;;;;;;;12.48;99.44;98667.28;1731766;82;21472;-85
2022/10/09 01:25:31;;;;;;;18.92;8.18;;;;;;;12.47;99.72;98658.83;1731227;82;21023;-85
2022/10/09 01:27:57;;;;;;;14.23;8.45;;;;;;;12.42;100.00;98678.15;1731537;82;21158;-86
2022/10/09 01:30:23;;;;;;;10.82;5.50;;;;;;;12.38;99.67;98687.11;1731536;82;20951;-87
2022/10/09 01:32:50;;;;;;;12.55;4.45;;;;;;;12.33;98.22;98689.86;1732005;82;20971;-86
2022/10/09 01:35:16;;;;;;;14.70;4.28;;;;;;;12.23;95.36;98696.13;1702592;82;21066;-86
2022/10/09 01:37:43;;;;;;;7.42;3.65;;;;;;;12.15;94.70;98693.96;1706728;82;21548;-86
2022/10/09 01:40:09;;;;;;;11.33;3.83;;;;;;;12.13;95.33;98698.83;1731656;81;21298;-86
2022/10/09 01:42:35;;;;;;;7.83;3.62;;;;;;;12.12;95.86;98706.72;1731727;81;22026;-86
2022/10/09 01:45:01;;;;;;;7.83;3.35;;;;;;;12.08;95.94;98713.80;1731598;82;20980;-85
2022/10/09 01:47:27;;;;;;;8.58;3.27;;;;;;;12.05;96.38;98708.38;1731914;82;20960;-84
2022/10/09 01:50:28;;;;;;;9.73;3.60;;;;;;;12.05;96.63;98708.91;1731745;81;21028;-85
2022/10/09 01:53:03;;;;;;;13.53;4.17;;;;;;;12.00;96.72;98710.27;1731725;82;21317;-87
2022/10/09 01:55:37;;;;;;;6.30;3.27;;;;;;;11.97;97.31;98717.06;1712982;82;21069;-86
2022/10/09 01:58:32;;;;;;;6.47;2.83;;;;;;;11.98;97.28;98724.12;1731690;81;21076;-87
2022/10/09 02:01:06;;;;;;;13.38;4.03;;;;;;;11.98;97.29;98735.53;1716164;82;21075;-85
2022/10/09 02:03:32;;;;;;;6.28;3.45;;;;;;;11.94;97.52;98733.88;1735846;81;22151;-85
2022/10/09 02:06:00;;;;;;;8.10;3.20;;;;;;;11.95;97.61;98733.34;1761781;81;21108;-86
2022/10/09 02:08:26;;;;;;;6.67;4.00;;;;;;;11.92;97.81;98739.32;1761269;81;21067;-85
2022/10/09 02:10:55;;;;;;;8.95;3.27;;;;;;;11.92;97.75;98750.19;1761901;81;20924;-87
2022/10/09 02:13:20;;;;;;;;;;;;;;;11.84;97.01;98750.98;1764586;81;20980;-86
2022/10/09 02:16:10;;;;;;;10.25;2.60;;;;;;;11.86;97.48;98754.78;1780786;80;20125;-86
2022/10/09 02:18:40;;;;;;;8.03;3.50;;;;;;;11.84;97.55;98753.70;1759557;81;21445;-84
2022/10/09 02:21:14;;;;;;;11.43;3.85;;;;;;;11.84;97.59;98761.85;1758373;81;21000;-84
2022/10/09 02:23:40;;;;;;;5.15;2.65;;;;;;;11.82;97.67;98759.95;1758430;81;20977;-84
2022/10/09 02:26:07;;;;;;;7.92;3.55;;;;;;;11.78;97.45;98756.09;1758234;81;21543;-87
2022/10/09 02:28:33;;;;;;;10.03;3.92;;;;;;;11.80;97.66;98764.03;1758354;81;21456;-85
2022/10/09 02:31:13;;;;;;;7.08;3.12;;;;;;;11.79;97.67;98756.91;1758529;81;21154;-86
2022/10/09 02:33:39;;;;;;;8.40;4.10;;;;;;;11.80;97.84;98764.03;1758405;81;21005;-85
2022/10/09 02:36:05;;;;;;;8.40;3.72;;;;;;;11.76;98.02;98754.20;1758459;81;21654;-87
2022/10/09 02:38:30;;;;;;;6.30;3.33;;;;;;;11.70;97.67;98755.27;1758358;81;20874;-85
2022/10/09 02:41:00;;;;;;;5.85;3.50;;;;;;;11.72;97.88;98761.81;1746995;81;20843;-84
2022/10/09 02:43:26;;;;;;;8.30;3.30;;;;;;;11.69;98.52;98764.50;1773486;80;21854;-87
2022/10/09 02:45:52;;;;;;;7.25;3.95;;;;;;;11.64;99.10;98763.70;1770004;80;21013;-84
2022/10/09 02:48:18;;;;;;;10.82;4.53;;;;;;;11.65;98.71;98765.33;1732769;82;20963;-85
2022/10/09 02:50:44;;;;;;;9.38;4.17;;;;;;;11.61;99.37;98767.74;1763011;81;21059;-87
2022/10/09 02:53:10;;;;;;;11.97;5.28;;;;;;;11.58;99.31;98774.53;1751819;81;21061;-84
2022/10/09 02:55:36;;;;;;;11.75;3.92;;;;;;;11.55;99.44;98775.08;1732796;81;21211;-87
2022/10/09 02:58:02;;;;;;;10.48;3.80;;;;;;;11.54;99.39;98781.59;1763146;81;20923;-88
2022/10/09 03:00:28;;;;;;;7.92;4.90;;;;;;;11.53;99.08;98778.58;1751741;81;21608;-87
2022/10/09 03:02:54;;;;;;;10.30;4.00;;;;;;;11.49;99.87;98786.99;1732836;82;20876;-88
2022/10/09 03:05:20;;;;;;;11.60;3.45;;;;;;;11.46;100.00;98788.08;1751657;81;20919;-86
2022/10/09 03:07:50;;;;;;;5.72;3.22;;;;;;;11.40;99.67;98789.95;1731563;82;21346;-86
2022/10/09 03:10:13;;;;;;;7.47;3.25;;;;;;;11.37;99.65;98791.85;1731144;82;21055;-85
2022/10/09 03:12:39;;;;;;;9.20;3.75;;;;;;;11.33;99.74;98800.23;1731752;82;20956;-85
2022/10/09 03:15:07;;;;;;;9.30;3.52;;;;;;;11.30;100.00;98804.30;1731659;82;21162;-87
2022/10/09 03:17:33;;;;;;;8.75;3.70;;;;;;;11.31;100.00;98801.05;1737978;81;21007;-88
2022/10/09 03:19:59;;;;;;;9.05;4.42;;;;;;;11.29;100.00;98801.86;1762014;81;21084;-86
2022/10/09 03:22:24;;;;;;;5.85;3.80;;;;;;;11.22;100.00;98802.09;1761798;81;21428;-88
2022/10/09 03:24:50;;;;;;;5.85;4.00;;;;;;;11.16;100.00;98800.43;1762225;81;20984;-83
2022/10/09 03:27:16;;;;;;;8.83;4.55;;;;;;;11.14;100.00;98809.92;1762145;81;21498;-83
2022/10/09 03:29:42;;;;;;;12.25;4.42;;;;;;;11.11;100.00;98815.86;1762132;81;21041;-86
2022/10/09 03:32:08;;;;;;;10.40;3.47;;;;;;;11.09;100.00;98816.12;1762076;81;21999;-85
2022/10/09 03:34:34;;;;;;;7.80;3.35;;;;;;;11.09;100.00;98816.12;1762132;81;20888;-83
2022/10/09 03:37:00;;;;;;;10.20;4.20;;;;;;;11.04;100.00;98816.11;1761685;81;20931;-83
2022/10/09 03:39:26;;;;;;;11.78;3.72;;;;;;;11.00;100.00;98817.16;1761906;81;21435;-83
2022/10/09 03:41:52;;;;;;;6.33;4.05;;;;;;;11.01;100.00;98817.44;1761982;81;20995;-86
2022/10/09 03:44:18;;;;;;;8.88;4.35;;;;;;;10.98;100.00;98819.87;1761805;81;21163;-85
2022/10/09 03:46:44;;;;;;;9.70;4.83;;;;;;;10.95;100.00;98819.86;1761840;81;20998;-83
2022/10/09 03:49:09;;;;;;;9.70;4.05;;;;;;;10.96;100.00;98826.10;1761954;81;21562;-83
2022/10/09 03:51:35;;;;;;;8.23;4.12;;;;;;;11.00;100.00;98821.77;1761783;81;20876;-82
2022/10/09 03:54:01;;;;;;;7.70;4.50;;;;;;;11.01;100.00;98824.22;1761988;81;20986;-85
2022/10/09 03:56:27;;;;;;;8.45;4.78;;;;;;;11.03;100.00;98828.05;1761788;81;20912;-83
2022/10/09 03:58:53;;;;;;;8.38;4.15;;;;;;;11.02;100.00;98827.73;1761824;81;21090;-85
2022/10/09 04:01:19;;;;;;;7.42;4.08;;;;;;;10.96;100.00;98835.05;1761762;81;21737;-85
2022/10/09 04:03:45;;;;;;;7.55;3.85;;;;;;;10.96;100.00;98835.59;1755288;81;20885;-85
2022/10/09 04:06:11;;;;;;;11.55;4.83;;;;;;;10.92;100.00;98829.05;1731711;82;21003;-83
2022/10/09 04:08:37;;;;;;;9.83;4.37;;;;;;;10.92;100.00;98837.17;1731829;82;22004;-83
2022/10/09 04:11:03;;;;;;;9.20;4.65;;;;;;;10.86;100.00;98836.35;1731791;82;20868;-85
2022/10/09 04:13:29;;;;;;;10.82;4.55;;;;;;;10.83;100.00;98837.39;1731585;82;21083;-85
2022/10/09 04:15:55;;;;;;;9.50;4.12;;;;;;;10.79;100.00;98836.30;1732020;82;21506;-85
2022/10/09 04:18:21;;;;;;;8.50;4.80;;;;;;;10.69;100.00;98839.76;1746261;81;21032;-83
2022/10/09 04:20:52;;;;;;;10.78;4.60;;;;;;;10.64;100.00;98844.59;1746555;82;21314;-83
2022/10/09 04:23:21;;;;;;;13.40;5.05;;;;;;;10.58;100.00;98844.80;1769217;81;20981;-88
2022/10/09 04:25:47;;;;;;;11.05;4.35;;;;;;;10.56;100.00;98851.03;1769505;81;21001;-86
2022/10/09 04:28:13;;;;;;;8.25;4.55;;;;;;;10.49;100.00;98851.78;1746395;81;20945;-88
2022/10/09 04:30:39;;;;;;;9.85;3.90;;;;;;;10.41;100.00;98854.42;1769234;81;21110;-86
2022/10/09 04:33:05;;;;;;;10.60;4.72;;;;;;;10.36;100.00;98853.86;1738744;81;23067;-85
2022/10/09 04:35:31;;;;;;;10.35;4.15;;;;;;;10.31;100.00;98855.16;1746407;81;21634;-85
2022/10/09 04:37:57;;;;;;;9.93;5.58;;;;;;;10.29;100.00;98860.02;1769372;81;20933;-85
2022/10/09 04:40:23;;;;;;;8.35;4.55;;;;;;;10.27;100.00;98868.14;1746598;81;20914;-85
2022/10/09 04:42:48;;;;;;;9.15;3.95;;;;;;;10.23;100.00;98869.70;1769413;81;20984;-83
2022/10/09 04:45:15;;;;;;;7.97;4.55;;;;;;;10.16;100.00;98872.05;1746908;81;21369;-85
2022/10/09 04:47:40;;;;;;;9.10;4.15;;;;;;;10.14;100.00;98882.33;1769476;81;20985;-85
2022/10/09 04:50:08;;;;;;;7.28;4.60;;;;;;;10.11;100.00;98886.91;1746642;81;20977;-84
2022/10/09 04:52:33;;;;;;;12.50;5.90;;;;;;;10.12;100.00;98887.73;1769532;81;21015;-86
2022/10/09 04:54:59;;;;;;;8.40;4.20;;;;;;;10.15;100.00;98892.62;1746676;81;20984;-85
2022/10/09 04:57:25;;;;;;;8.53;4.92;;;;;;;10.16;100.00;98896.42;1769140;81;21831;-83
2022/10/09 04:59:51;;;;;;;10.63;4.40;;;;;;;10.18;100.00;98896.19;1746590;81;20917;-84
2022/10/09 05:02:17;;;;;;;12.70;5.28;;;;;;;10.21;100.00;98905.15;1769132;81;20964;-83
2022/10/09 05:04:45;;;;;;;10.72;4.05;;;;;;;10.22;100.00;98905.45;1764128;81;20962;-84
2022/10/09 05:07:11;;;;;;;7.15;5.12;;;;;;;10.24;100.00;98907.37;1732641;81;21456;-84
2022/10/09 05:09:37;;;;;;;6.45;3.77;;;;;;;10.27;100.00;98906.88;1760652;81;21276;-83
2022/10/09 05:12:03;;;;;;;9.60;3.95;;;;;;;10.25;100.00;98902.23;1760137;81;20961;-83
2022/10/09 05:14:29;;;;;;;11.00;4.42;;;;;;;10.26;100.00;98909.30;1732867;82;21039;-83
2022/10/09 05:17:01;;;;;;;10.72;5.15;;;;;;;10.27;100.00;98910.94;1751759;81;20965;-83
2022/10/09 05:19:23;;;;;;;33.83;13.78;;;;;;;10.25;100.00;98914.41;1746082;82;21004;-85
2022/10/09 05:21:49;;;;;;;45.70;25.77;;;;;;;10.19;100.00;98911.36;1777426;80;21026;-82
2022/10/09 05:24:15;;;;;;;15.05;8.45;;;;;;;10.21;100.00;98917.34;1746522;82;20882;-84
2022/10/09 05:26:41;;;;;;;13.50;5.90;;;;;;;10.21;100.00;98911.11;1769436;81;20969;-83
2022/10/09 05:29:07;;;;;;;35.15;25.60;;;;;;;10.20;100.00;98910.83;1746459;81;20858;-83
2022/10/09 05:31:33;;;;;;;14.95;11.18;;;;;;;10.17;100.00;98914.88;1777346;80;20983;-85
2022/10/09 05:34:00;;;;;;;35.08;15.32;;;;;;;10.16;100.00;98919.44;1746608;81;21260;-86
2022/10/09 05:36:26;;;;;;;70.87;44.60;;;;;;;10.16;100.00;98928.92;1746330;81;20982;-86
2022/10/09 05:38:52;;;;;;;13.35;7.58;;;;;;;10.18;100.00;98934.11;1745788;81;20965;-84
2022/10/09 05:41:18;;;;;;;56.73;40.20;;;;;;;10.08;100.00;98936.68;1769460;81;20889;-83
2022/10/09 05:43:46;;;;;;;159.52;109.65;;;;;;;10.02;100.00;98941.24;1769380;81;21020;-85
2022/10/09 05:46:15;;;;;;;77.58;55.60;;;;;;;9.98;100.00;98943.34;1769336;81;21075;-85
2022/10/09 05:48:42;;;;;;;206.20;140.03;;;;;;;10.02;100.00;98945.30;1769304;81;21025;-86
2022/10/09 05:51:19;;;;;;;576.80;361.45;;;;;;;10.05;100.00;98950.73;1769641;81;21249;-84
2022/10/09 05:53:45;;;;;;;696.77;405.00;;;;;;;10.04;100.00;98959.41;1745843;82;21529;-83
2022/10/09 05:56:24;;;;;;;525.38;281.98;;;;;;;10.05;100.00;98957.51;1769298;81;21004;-82
2022/10/09 05:58:56;;;;;;;1002.75;580.52;;;;;;;10.10;100.00;98970.58;1717263;82;21157;-83
2022/10/09 06:01:25;;;;;;;249.60;151.82;;;;;;;10.16;100.00;98969.55;1768581;81;21004;-85
2022/10/09 06:03:53;;;;;;;311.98;233.23;;;;;;;10.21;100.00;98976.11;1748189;81;20958;-86
2022/10/09 06:06:20;;;;;;;85.67;63.50;;;;;;;10.24;100.00;98970.20;1752795;81;21096;-83
2022/10/09 06:08:46;;;;;;;24.18;14.20;;;;;;;10.19;100.00;98980.43;1753051;81;21442;-83
2022/10/09 06:11:18;;;;;;;380.55;217.68;;;;;;;10.23;100.00;98980.77;1752879;81;21073;-83
2022/10/09 06:13:45;;;;;;;120.00;68.92;;;;;;;10.24;100.00;98985.10;1751445;81;21005;-86
2022/10/09 06:16:13;;;;;;;79.00;65.57;;;;;;;10.30;100.00;98990.33;1752923;81;20962;-87
2022/10/09 06:18:40;;;;;;;211.55;142.72;;;;;;;10.27;100.00;98993.56;1751285;81;21040;-85
2022/10/09 06:21:06;;;;;;;111.00;72.53;;;;;;;10.31;100.00;98991.96;1771815;81;21433;-85
2022/10/09 06:23:32;;;;;;;730.15;386.25;;;;;;;10.36;100.00;98994.73;1771676;81;21354;-87
2022/10/09 06:26:05;;;;;;;849.30;435.30;;;;;;;10.37;100.00;98999.08;1751337;82;22353;-87
2022/10/09 06:28:31;;;;;;;1470.78;713.45;;;;;;;10.29;99.77;99004.95;1770945;81;21044;-87
2022/10/09 06:31:12;;;;;;;1665.68;758.70;;;;;;;10.39;100.00;99006.95;1771912;81;21040;-86
2022/10/09 06:33:40;;;;;;;316.70;199.25;;;;;;;10.49;100.00;99006.23;1771501;81;21441;-83
2022/10/09 06:36:15;;;;;;;1281.43;594.70;;;;;;;10.57;99.40;99013.38;1771910;81;21448;-84
2022/10/09 06:38:41;;;;;;;1130.92;603.52;;;;;;;10.59;98.77;99015.82;1771534;81;21512;-85
2022/10/09 06:41:10;;;;;;;1134.50;623.13;;;;;;;10.61;98.21;99018.58;1771798;81;20909;-86
2022/10/09 06:43:37;;;;;;;425.68;272.63;;;;;;;10.69;98.76;99022.73;1771659;81;21043;-83
2022/10/09 06:46:05;;;;;;;446.40;220.57;;;;;;;10.66;97.49;99022.68;1771923;81;21205;-85
2022/10/09 06:48:32;;;;;;;513.15;327.02;;;;;;;10.74;97.52;99021.41;1751071;82;21464;-85
2022/10/09 06:51:11;;;;;;;809.15;485.85;;;;;;;10.76;95.69;99023.31;1771802;81;21028;-84
2022/10/09 06:53:39;;;;;;;334.30;146.95;;;;;;;10.84;95.55;99028.27;1770749;81;21059;-86
2022/10/09 06:56:05;;;;;;;222.58;88.92;;;;;;;11.01;95.34;99030.33;1771869;81;21036;-85
2022/10/09 06:58:30;;;;;;;233.82;164.45;;;;;;;10.98;95.08;99026.78;1771674;81;21681;-84
2022/10/09 07:01:08;;;;;;;401.40;356.63;;;;;;;11.03;95.25;99031.45;1751463;82;21323;-84
2022/10/09 07:03:34;;;;;;;96.05;76.45;;;;;;;11.04;95.15;99034.44;1769905;80;21018;-84
2022/10/09 07:06:21;;;;;;;24.02;17.85;;;;;;;11.13;94.66;99036.95;1732794;81;21712;-85
2022/10/09 07:08:51;;;;;;;13.00;9.60;;;;;;;10.97;94.39;99039.25;1751490;81;21041;-84
2022/10/09 07:11:20;;;;;;;12.53;10.93;;;;;;;10.94;94.62;99037.88;1732813;82;21117;-86
2022/10/09 07:13:47;;;;;;;13.35;10.23;;;;;;;11.05;94.44;99047.46;1732680;81;21531;-85
2022/10/09 07:16:13;;;;;;;46.40;17.15;;;;;;;11.15;94.99;99039.41;1704033;82;21118;-84
2022/10/09 07:18:39;;;;;;;50.25;18.15;;;;;;;11.13;94.00;99046.99;1688662;82;21024;-83
2022/10/09 07:21:07;;;;;;;64.17;29.32;;;;;;;11.20;93.20;99044.89;1777329;80;20974;-85
2022/10/09 07:23:33;;;;;;;42.48;17.77;;;;;;;11.18;92.30;99056.52;1717040;82;21029;-86
2022/10/09 07:26:00;;;;;;;52.73;21.17;;;;;;;11.08;93.08;99049.64;1746307;81;21022;-86
2022/10/09 07:28:27;;;;;;;58.42;22.90;;;;;;;11.05;93.58;99056.95;1746388;81;21001;-86
2022/10/09 07:30:53;;;;;;;15.90;8.78;;;;;;;10.95;93.97;99064.46;1746786;82;22172;-86
2022/10/09 07:33:19;;;;;;;47.55;19.00;;;;;;;10.97;94.25;99061.77;1746192;82;20890;-84
2022/10/09 07:36:00;;;;;;;16.25;7.00;;;;;;;10.98;94.76;99072.08;1777715;80;20894;-83
2022/10/09 07:38:26;;;;;;;70.35;35.08;;;;;;;10.95;93.92;99073.41;1746561;81;21899;-86
2022/10/09 07:40:52;;;;;;;15.43;8.53;;;;;;;11.03;94.27;99075.39;1769548;81;20886;-86
2022/10/09 07:43:18;;;;;;;77.55;37.50;;;;;;;11.05;93.34;99080.01;1769321;81;21409;-86
2022/10/09 07:45:44;;;;;;;47.00;20.43;;;;;;;11.08;92.53;99082.20;1769839;81;21265;-86
2022/10/09 07:48:10;;;;;;;61.98;26.02;;;;;;;11.09;90.63;99085.19;1746415;82;20980;-84
2022/10/09 07:50:36;;;;;;;72.45;30.97;;;;;;;11.10;88.67;99090.89;1769541;81;21099;-86
2022/10/09 07:53:02;;;;;;;62.62;25.62;;;;;;;11.12;87.81;99093.64;1746214;82;20897;-83
2022/10/09 07:55:28;;;;;;;44.73;20.62;;;;;;;11.26;88.80;99100.27;1769600;81;21629;-87
2022/10/09 07:57:53;;;;;;;97.50;38.53;;;;;;;11.23;87.79;99098.62;1746573;82;20882;-87
2022/10/09 08:00:19;;;;;;;50.67;24.37;;;;;;;11.35;89.24;99090.30;1769397;81;20952;-84
2022/10/09 08:02:45;;;;;;;49.85;19.82;;;;;;;11.52;89.24;99086.37;1769348;81;21155;-85
2022/10/09 08:05:11;;;;;;;30.55;14.35;;;;;;;11.70;89.56;99093.28;1751916;81;20883;-83
2022/10/09 08:07:37;;;;;;;77.42;31.42;;;;;;;11.73;87.97;99093.33;1752913;81;20910;-86
2022/10/09 08:10:04;;;;;;;39.63;19.48;;;;;;;11.76;87.03;99103.66;1753238;81;21600;-84
2022/10/09 08:12:30;;;;;;;18.67;8.08;;;;;;;11.87;87.77;99095.88;1752931;81;21008;-83
2022/10/09 08:14:56;;;;;;;54.05;20.68;;;;;;;11.94;86.11;99096.47;1773560;80;21346;-83
2022/10/09 08:17:22;;;;;;;41.55;15.68;;;;;;;11.99;85.67;99100.59;1769139;80;20948;-86
2022/10/09 08:19:48;;;;;;;19.92;9.88;;;;;;;12.11;86.25;99107.16;1750370;82;20868;-86
2022/10/09 08:22:14;;;;;;;25.25;9.45;;;;;;;12.32;85.02;99102.67;1749985;82;21019;-85
2022/10/09 08:24:40;;;;;;;25.70;11.22;;;;;;;13.20;81.11;99109.48;1750264;82;20967;-86
2022/10/09 08:27:05;;;;;;;11.12;5.05;;;;;;;14.53;74.95;99104.72;1750261;82;21138;-85
2022/10/09 08:29:32;;;;;;;19.65;8.83;;;;;;;15.00;73.16;99108.28;1750224;82;20887;-87
2022/10/09 08:31:58;;;;;;;17.25;8.45;;;;;;;15.66;69.73;99107.02;1750136;82;21369;-87
2022/10/09 08:34:24;;;;;;;9.50;4.47;;;;;;;15.80;71.08;99113.44;1750450;82;20883;-85
2022/10/09 08:36:50;;;;;;;7.45;3.50;;;;;;;15.39;74.88;99108.30;1720642;82;21478;-84
2022/10/09 08:39:16;;;;;;;5.58;2.58;;;;;;;15.11;76.03;99115.84;1777431;80;21235;-84
2022/10/09 08:41:45;;;;;;;9.50;3.25;;;;;;;15.10;74.67;99107.39;1724284;82;21658;-86
2022/10/09 08:44:20;;;;;;;8.15;3.22;;;;;;;15.05;76.91;99111.54;1771783;81;20984;-86
2022/10/09 08:47:12;;;;;;;28.02;11.40;;;;;;;14.89;77.38;99110.81;1751580;82;20993;-84
2022/10/09 08:49:49;;;;;;;21.25;8.90;;;;;;;14.58;75.39;99113.67;1782536;80;20986;-86
2022/10/09 08:52:39;;;;;;;14.87;4.55;;;;;;;14.42;75.83;99118.06;1751303;80;21162;-86
2022/10/09 08:55:22;;;;;;;12.70;5.85;;;;;;;13.70;75.32;99113.31;1751567;82;21452;-86
2022/10/09 08:57:51;;;;;;;9.20;4.33;;;;;;;13.31;77.67;99117.11;1751493;81;20981;-85
2022/10/09 09:00:19;;;;;;;7.20;4.42;;;;;;;12.90;79.61;99120.56;1751708;82;21024;-86
2022/10/09 09:02:58;;;;;;;;;;;;;;;12.66;80.67;99118.84;1726512;82;21001;-86
2022/10/09 09:05:42;;;;;;;13.05;6.45;;;;;;;12.30;82.14;99117.04;1752743;81;21668;-84
2022/10/09 09:08:43;;;;;;;17.02;4.58;;;;;;;12.22;82.92;99115.67;1737340;82;20984;-85
2022/10/09 09:11:17;;;;;;;9.83;4.17;;;;;;;12.38;82.38;99124.14;1784297;80;21030;-83
2022/10/09 09:14:01;;;;;;;10.08;5.03;;;;;;;12.59;82.51;99119.63;1784005;80;20998;-84
2022/10/09 09:16:51;;;;;;;9.35;4.12;;;;;;;12.59;80.87;99107.94;1784124;80;21474;-85
2022/10/09 09:19:46;;;;;;;16.15;10.98;;;;;;;12.73;81.56;99108.24;1752553;80;21068;-84
2022/10/09 09:22:13;;;;;;;5.25;3.20;;;;;;;12.88;81.26;99105.03;1771694;81;21436;-84
2022/10/09 09:24:45;;;;;;;11.30;4.67;;;;;;;12.87;78.68;99105.30;1771756;81;21067;-85
2022/10/09 09:27:18;;;;;;;8.53;2.77;;;;;;;12.88;74.45;99106.94;1771942;81;20972;-86
2022/10/09 09:29:58;;;;;;;13.48;6.22;;;;;;;13.10;76.24;99098.02;1772020;81;21075;-84
2022/10/09 09:32:26;;;;;;;10.63;7.47;;;;;;;13.36;76.48;99101.61;1751993;81;21175;-85
2022/10/09 09:34:56;;;;;;;9.77;4.90;;;;;;;13.53;77.05;99106.24;1772303;81;21024;-85
2022/10/09 09:37:22;;;;;;;11.83;4.62;;;;;;;13.45;77.81;99112.77;1770328;81;21516;-84
2022/10/09 09:39:48;;;;;;;13.72;9.30;;;;;;;13.23;78.14;99109.75;1751441;82;20874;-83
2022/10/09 09:42:18;;;;;;;8.20;4.72;;;;;;;12.91;77.82;99120.84;1743752;81;20976;-84
2022/10/09 09:44:58;;;;;;;8.03;3.85;;;;;;;12.88;78.92;99115.91;1772123;81;22105;-86
2022/10/09 09:47:47;;;;;;;7.80;4.28;;;;;;;12.97;78.13;99107.50;1751288;81;21070;-85
2022/10/09 09:50:13;;;;;;;11.50;5.75;;;;;;;12.80;74.67;99106.91;1772072;81;21031;-86
2022/10/09 09:52:42;;;;;;;11.25;4.42;;;;;;;13.15;77.33;99106.16;1771839;81;20869;-86
2022/10/09 09:55:26;;;;;;;7.78;4.15;;;;;;;13.35;76.48;99112.77;1751640;82;21039;-84
2022/10/09 09:57:54;;;;;;;10.40;5.92;;;;;;;13.21;75.59;99111.11;1770996;81;21197;-87
2022/10/09 10:00:22;;;;;;;12.05;5.37;;;;;;;13.23;74.48;99117.09;1744078;81;21040;-86
2022/10/09 10:02:49;;;;;;;7.85;5.00;;;;;;;13.22;75.69;99119.00;1751543;80;21021;-84
2022/10/09 10:05:24;;;;;;;8.45;2.85;;;;;;;13.21;74.12;99117.92;1724013;82;21032;-85
2022/10/09 10:07:51;;;;;;;8.18;4.50;;;;;;;12.88;71.73;99122.71;1739553;81;21040;-86
2022/10/09 10:10:29;;;;;;;8.18;3.37;;;;;;;12.80;73.54;99110.17;1739896;81;21742;-84
2022/10/09 10:12:57;;;;;;;4.25;2.65;;;;;;;12.85;74.10;99109.66;1739583;82;21414;-86
2022/10/09 10:15:31;;;;;;;8.65;4.33;;;;;;;12.63;71.85;99102.23;1739920;82;21024;-85
2022/10/09 10:18:02;;;;;;;6.83;4.15;;;;;;;12.74;73.22;99102.56;1750749;81;21004;-86
2022/10/09 10:20:29;;;;;;;4.75;2.77;;;;;;;12.76;73.58;99103.65;1769086;81;20997;-86
2022/10/09 10:22:56;;;;;;;7.72;4.22;;;;;;;12.88;74.42;99105.03;1716223;82;23762;-84
2022/10/09 10:25:32;;;;;;;5.50;2.92;;;;;;;12.93;74.52;99109.14;1765683;81;21083;-86
2022/10/09 10:28:06;;;;;;;5.95;3.08;;;;;;;13.08;75.22;99105.64;1765168;81;20948;-84
2022/10/09 10:30:32;;;;;;;8.35;3.05;;;;;;;13.07;74.38;99102.61;1765211;81;21012;-86
2022/10/09 10:33:19;;;;;;;8.38;3.77;;;;;;;13.07;73.84;99102.61;1765348;81;21965;-84
2022/10/09 10:35:45;;;;;;;10.15;3.50;;;;;;;13.01;72.73;99100.17;1765490;81;21184;-86
2022/10/09 10:38:30;;;;;;;6.03;3.72;;;;;;;13.00;73.14;99095.28;1710087;81;20964;-86
2022/10/09 10:41:10;;;;;;;7.37;3.37;;;;;;;12.98;70.70;99097.43;1765861;81;21020;-84
2022/10/09 10:43:45;;;;;;;7.50;3.37;;;;;;;13.11;72.51;99094.75;1765298;81;21026;-84
2022/10/09 10:46:20;;;;;;;7.58;3.17;;;;;;;13.08;73.21;99092.03;1765366;81;21101;-84
2022/10/09 10:48:46;;;;;;;6.10;3.05;;;;;;;13.24;73.50;99091.00;1765417;81;21112;-84
2022/10/09 10:51:28;;;;;;;7.47;4.60;;;;;;;13.29;72.62;99096.16;1765641;81;20966;-86
2022/10/09 10:54:20;;;;;;;8.38;3.33;;;;;;;13.14;70.49;99088.75;1765569;81;21004;-84
2022/10/09 10:57:12;;;;;;;7.10;4.17;;;;;;;13.10;71.88;99091.75;1765788;81;21024;-84
2022/10/09 11:00:04;;;;;;;5.95;2.87;;;;;;;12.90;72.33;99091.16;1765752;81;20965;-84
2022/10/09 11:02:53;;;;;;;7.10;3.33;;;;;;;12.88;73.31;99096.87;1765460;79;21075;-83
2022/10/09 11:05:48;;;;;;;8.10;3.20;;;;;;;12.93;72.63;99094.72;1751989;81;21023;-85
2022/10/09 11:08:49;;;;;;;6.15;2.70;;;;;;;13.05;71.40;99093.91;1731720;82;21082;-84
2022/10/09 11:11:51;;;;;;;11.15;2.87;;;;;;;13.08;69.96;99089.31;1731671;82;21051;-86
2022/10/09 11:14:51;;;;;;;5.92;3.20;;;;;;;13.39;71.93;99081.19;1731428;82;21082;-87
2022/10/09 11:17:45;;;;;;;5.45;2.98;;;;;;;13.59;69.36;99083.08;1734496;81;21535;-84
2022/10/09 11:20:43;;;;;;;5.80;3.27;;;;;;;13.64;71.54;99079.00;1761759;81;21019;-84
2022/10/09 11:23:20;;;;;;;5.97;2.92;;;;;;;13.63;69.69;99069.20;1762145;81;21460;-87
2022/10/09 11:26:24;;;;;;;8.85;3.17;;;;;;;13.60;69.94;99070.57;1762127;81;21074;-86
2022/10/09 11:28:58;;;;;;;7.47;3.58;;;;;;;13.53;70.90;99068.67;1761743;81;21012;-84
2022/10/09 11:31:39;;;;;;;9.40;3.58;;;;;;;13.57;71.58;99058.84;1761815;81;21138;-86
2022/10/09 11:34:25;;;;;;;5.20;3.25;;;;;;;13.55;71.33;99068.66;1709220;81;20968;-86
2022/10/09 11:36:51;;;;;;;6.65;2.83;;;;;;;13.44;69.89;99062.14;1762093;81;21447;-86